Toyofujimaru No.2 — 7JDI — position and weather

sailwx.info

Track history (hours):
 
Tides and Currents Weather Stations Pressure Air Temp Water Temp Dewpoint Dewpoint Depression Visibility Wind Speed Wind Dir Waves Ship Positions

Toyofujimaru No.2

Last reported at 2015-Mar-26 15:31 UTC. Time now 2015-Mar-26 19:17 UTC.
Position N 34°31' E 138°34'.

Length 165 m; draft 6.4 m.

Type: Cargo ship. MMSI: 432667000.

Date/timePositionNaut miles runAvg speedWind from/ knotsBaromVisibWave heightAir tempDewpointWater temp
2015-Mar-26 15:31N 34°31' E 138°34'5216.4
2015-Mar-26 12:21N 34°57' E 139°29'1316.9
2015-Mar-26 11:33N 35°04' E 139°43'1413.9
2015-Mar-26 10:33N 35°18' E 139°44'7 7.1
2015-Mar-26 09:33N 35°23' E 139°39'0 0.0
2015-Mar-26 08:31N 35°23' E 139°39'0 0.0
2015-Mar-26 07:31N 35°23' E 139°39'0 0.0
2015-Mar-26 06:31N 35°23' E 139°39'0 0.0
2015-Mar-26 05:22N 35°23' E 139°39'0 0.0
2015-Mar-26 04:28N 35°23' E 139°39'0 0.0
2015-Mar-26 03:25N 35°23' E 139°39'1 0.6
2015-Mar-26 02:33N 35°24' E 139°39'1212.1
2015-Mar-26 01:33N 35°13' E 139°47'1616.1
2015-Mar-26 00:33N 34°57' E 139°44'1716.7
2015-Mar-25 23:34N 34°55' E 140°04'2319.3
2015-Mar-25 22:21N 35°07' E 140°28'1817.8
2015-Mar-25 21:21N 35°21' E 140°42'1417.8
2015-Mar-25 20:33N 35°31' E 140°54'2016.8
2015-Mar-25 19:22N 35°51' E 140°60'12 0.4
2015-Mar-24 15:33N 35°39' E 140°57'2019.5
2015-Mar-24 14:33N 35°23' E 140°43'2020.3
2015-Mar-24 13:33N 35°08' E 140°28'2221.6
2015-Mar-24 12:33N 34°56' E 140°06'1918.6
2015-Mar-24 11:33N 34°55' E 139°43'1818.3
2015-Mar-24 10:34N 35°13' E 139°46'1313.0
2015-Mar-24 09:33N 35°26' E 139°45'4 4.1
2015-Mar-24 08:32N 35°30' E 139°46'0 0.0
2015-Mar-24 07:32N 35°30' E 139°46'0 0.0
2015-Mar-24 06:32N 35°30' E 139°46'0 0.0
2015-Mar-24 05:32N 35°30' E 139°46'6 6.4
2015-Mar-24 04:33N 35°25' E 139°42'3 3.0
2015-Mar-24 03:31N 35°23' E 139°39'0 0.0
2015-Mar-24 02:31N 35°23' E 139°39'0 0.0
2015-Mar-24 01:28N 35°23' E 139°39'0 0.0
2015-Mar-24 00:31N 35°23' E 139°39'0 0.0
2015-Mar-23 23:31N 35°23' E 139°39'0 0.5
2015-Mar-23 22:33N 35°24' E 139°39'1211.9
2015-Mar-23 21:33N 35°14' E 139°47'1818.3
2015-Mar-23 20:33N 34°58' E 139°35'5618.7
2015-Mar-23 17:32N 34°32' E 138°34'1 0.0
2015-Mar-22 15:04N 34°31' E 138°34'4516.3
2015-Mar-22 12:17N 34°54' E 139°22'1317.4
2015-Mar-22 11:33N 35°01' E 139°34'1615.6
2015-Mar-22 10:33N 35°13' E 139°46'1211.9
2015-Mar-22 09:34N 35°23' E 139°39'0 0.1
2015-Mar-22 08:31N 35°23' E 139°39'0 0.0
2015-Mar-22 07:31N 35°23' E 139°39'0 0.0
2015-Mar-22 06:28N 35°23' E 139°39'0 0.0
2015-Mar-22 05:28N 35°23' E 139°39'0 0.0
2015-Mar-22 04:31N 35°23' E 139°39'7 7.0
2015-Mar-22 03:33N 35°18' E 139°44'1212.4
2015-Mar-22 02:34N 35°06' E 139°45'24 0.7
2015-Mar-20 13:27N 34°59' E 140°14'2219.6
2015-Mar-20 12:20N 34°51' E 139°49'1518.7
2015-Mar-20 11:33N 35°06' E 139°44'1413.7
2015-Mar-20 10:34N 35°19' E 139°43'1111.4
2015-Mar-20 09:33N 35°30' E 139°46'0 0.4
2015-Mar-20 08:31N 35°30' E 139°46'0 0.0
2015-Mar-20 07:31N 35°30' E 139°46'0 0.0
2015-Mar-20 06:25N 35°30' E 139°46'0 0.0
2015-Mar-20 05:25N 35°30' E 139°46'0 0.0
2015-Mar-20 04:31N 35°30' E 139°46'5 4.8
2015-Mar-20 03:33N 35°26' E 139°43'5 4.5
2015-Mar-20 02:33N 35°23' E 139°39'0 0.0
2015-Mar-20 01:32N 35°23' E 139°39'0 0.0
2015-Mar-20 00:32N 35°23' E 139°39'0 0.0
2015-Mar-19 23:32N 35°23' E 139°39'1 1.3
2015-Mar-19 22:33N 35°23' E 139°40'1312.8
2015-Mar-19 21:33N 35°12' E 139°47'2019.7
2015-Mar-19 20:33N 34°56' E 139°32'5 0.2
2015-Mar-18 13:15N 34°55' E 139°26'1318.8
2015-Mar-18 12:33N 35°03' E 139°38'1514.8
2015-Mar-18 11:33N 35°17' E 139°45'8 8.1
2015-Mar-18 10:33N 35°23' E 139°39'0 0.0
2015-Mar-18 09:32N 35°23' E 139°39'0 0.0
2015-Mar-18 08:32N 35°23' E 139°39'0 0.0
2015-Mar-18 07:32N 35°23' E 139°39'0 0.0
2015-Mar-18 06:32N 35°23' E 139°39'0 0.0
2015-Mar-18 05:33N 35°23' E 139°39'0 0.0
2015-Mar-18 04:29N 35°23' E 139°39'0 0.0
2015-Mar-18 03:33N 35°23' E 139°39'7 7.4
2015-Mar-18 02:33N 35°18' E 139°45'1414.1
2015-Mar-18 01:33N 35°04' E 139°44'8 7.8
2015-Mar-18 00:32N 34°56' E 139°40'  
Track history (hours):
 
Tides and Currents Weather Stations Pressure Air Temp Water Temp Dewpoint Dewpoint Depression Visibility Wind Speed Wind Dir Waves Ship Positions

Toyofujimaru No.2

Last reported at 2015-Mar-26 15:31 UTC. Time now 2015-Mar-26 19:17 UTC.
Position N 34°31' E 138°34'.

Length 165 m; draft 6.4 m.

Type: Cargo ship. MMSI: 432667000.

Date/timePositionNaut miles runAvg speedWind from/ knotsBaromVisibWave heightAir tempDewpointWater temp
2015-Mar-26 15:31N 34°31' E 138°34'5216.4
2015-Mar-26 12:21N 34°57' E 139°29'1316.9
2015-Mar-26 11:33N 35°04' E 139°43'1413.9
2015-Mar-26 10:33N 35°18' E 139°44'7 7.1
2015-Mar-26 09:33N 35°23' E 139°39'0 0.0
2015-Mar-26 08:31N 35°23' E 139°39'0 0.0
2015-Mar-26 07:31N 35°23' E 139°39'0 0.0
2015-Mar-26 06:31N 35°23' E 139°39'0 0.0
2015-Mar-26 05:22N 35°23' E 139°39'0 0.0
2015-Mar-26 04:28N 35°23' E 139°39'0 0.0
2015-Mar-26 03:25N 35°23' E 139°39'1 0.6
2015-Mar-26 02:33N 35°24' E 139°39'1212.1
2015-Mar-26 01:33N 35°13' E 139°47'1616.1
2015-Mar-26 00:33N 34°57' E 139°44'1716.7
2015-Mar-25 23:34N 34°55' E 140°04'2319.3
2015-Mar-25 22:21N 35°07' E 140°28'1817.8
2015-Mar-25 21:21N 35°21' E 140°42'1417.8
2015-Mar-25 20:33N 35°31' E 140°54'2016.8
2015-Mar-25 19:22N 35°51' E 140°60'12 0.4
2015-Mar-24 15:33N 35°39' E 140°57'2019.5
2015-Mar-24 14:33N 35°23' E 140°43'2020.3
2015-Mar-24 13:33N 35°08' E 140°28'2221.6
2015-Mar-24 12:33N 34°56' E 140°06'1918.6
2015-Mar-24 11:33N 34°55' E 139°43'1818.3
2015-Mar-24 10:34N 35°13' E 139°46'1313.0
2015-Mar-24 09:33N 35°26' E 139°45'4 4.1
2015-Mar-24 08:32N 35°30' E 139°46'0 0.0
2015-Mar-24 07:32N 35°30' E 139°46'0 0.0
2015-Mar-24 06:32N 35°30' E 139°46'0 0.0
2015-Mar-24 05:32N 35°30' E 139°46'6 6.4
2015-Mar-24 04:33N 35°25' E 139°42'3 3.0
2015-Mar-24 03:31N 35°23' E 139°39'0 0.0
2015-Mar-24 02:31N 35°23' E 139°39'0 0.0
2015-Mar-24 01:28N 35°23' E 139°39'0 0.0
2015-Mar-24 00:31N 35°23' E 139°39'0 0.0
2015-Mar-23 23:31N 35°23' E 139°39'0 0.5
2015-Mar-23 22:33N 35°24' E 139°39'1211.9
2015-Mar-23 21:33N 35°14' E 139°47'1818.3
2015-Mar-23 20:33N 34°58' E 139°35'5618.7
2015-Mar-23 17:32N 34°32' E 138°34'1 0.0
2015-Mar-22 15:04N 34°31' E 138°34'4516.3
2015-Mar-22 12:17N 34°54' E 139°22'1317.4
2015-Mar-22 11:33N 35°01' E 139°34'1615.6
2015-Mar-22 10:33N 35°13' E 139°46'1211.9
2015-Mar-22 09:34N 35°23' E 139°39'0 0.1
2015-Mar-22 08:31N 35°23' E 139°39'0 0.0
2015-Mar-22 07:31N 35°23' E 139°39'0 0.0
2015-Mar-22 06:28N 35°23' E 139°39'0 0.0
2015-Mar-22 05:28N 35°23' E 139°39'0 0.0
2015-Mar-22 04:31N 35°23' E 139°39'7 7.0
2015-Mar-22 03:33N 35°18' E 139°44'1212.4
2015-Mar-22 02:34N 35°06' E 139°45'24 0.7
2015-Mar-20 13:27N 34°59' E 140°14'2219.6
2015-Mar-20 12:20N 34°51' E 139°49'1518.7
2015-Mar-20 11:33N 35°06' E 139°44'1413.7
2015-Mar-20 10:34N 35°19' E 139°43'1111.4
2015-Mar-20 09:33N 35°30' E 139°46'0 0.4
2015-Mar-20 08:31N 35°30' E 139°46'0 0.0
2015-Mar-20 07:31N 35°30' E 139°46'0 0.0
2015-Mar-20 06:25N 35°30' E 139°46'0 0.0
2015-Mar-20 05:25N 35°30' E 139°46'0 0.0
2015-Mar-20 04:31N 35°30' E 139°46'5 4.8
2015-Mar-20 03:33N 35°26' E 139°43'5 4.5
2015-Mar-20 02:33N 35°23' E 139°39'0 0.0
2015-Mar-20 01:32N 35°23' E 139°39'0 0.0
2015-Mar-20 00:32N 35°23' E 139°39'0 0.0
2015-Mar-19 23:32N 35°23' E 139°39'1 1.3
2015-Mar-19 22:33N 35°23' E 139°40'1312.8
2015-Mar-19 21:33N 35°12' E 139°47'2019.7
2015-Mar-19 20:33N 34°56' E 139°32'5 0.2
2015-Mar-18 13:15N 34°55' E 139°26'1318.8
2015-Mar-18 12:33N 35°03' E 139°38'1514.8
2015-Mar-18 11:33N 35°17' E 139°45'8 8.1
2015-Mar-18 10:33N 35°23' E 139°39'0 0.0
2015-Mar-18 09:32N 35°23' E 139°39'0 0.0
2015-Mar-18 08:32N 35°23' E 139°39'0 0.0
2015-Mar-18 07:32N 35°23' E 139°39'0 0.0
2015-Mar-18 06:32N 35°23' E 139°39'0 0.0
2015-Mar-18 05:33N 35°23' E 139°39'0 0.0
2015-Mar-18 04:29N 35°23' E 139°39'0 0.0
2015-Mar-18 03:33N 35°23' E 139°39'7 7.4
2015-Mar-18 02:33N 35°18' E 139°45'1414.1
2015-Mar-18 01:33N 35°04' E 139°44'8 7.8
2015-Mar-18 00:32N 34°56' E 139°40'  

Dump ship's entire track history